Hussar Agdm

CXHR · Alberta, Canada

Storia di METAR CXHR · Hussar Agdm

Di seguito sono riportati i METAR degli ultimi giorni. Seleziona un anno per sfogliare i METAR più vecchi, dall'anno 2007 in poi.

15 luglio 2024

Tempo Codice Tempo meteorologico Temp. Vista Base nuvolosa Vento METAR/SPECI
12:00
V
26 °C 8 mi - 010° 010° 6 kt METAR CYYC 151800Z 01006KT 300V110 8SM FEW300 26/14 A2997 RMK CI1 SLP138 DENSITY ALT 5600FT
11:00
V
23 °C 8 mi - Var Var 2 kt METAR CYYC 151700Z VRB02KT 8SM FEW300 23/14 A2998 RMK CI1 HZ SLP142 DENSITY ALT 5300FT
10:00
V
20 °C 8 mi - 110° 110° 3 kt METAR CYYC 151600Z 11003KT 080V190 8SM FEW300 20/14 A2999 RMK CI2 HZ SLP149 DENSITY ALT 5000FT
09:00
V
18 °C 8 mi - 190° 190° 3 kt METAR CYYC 151500Z 19003KT 150V240 8SM FEW210 18/13 A2999 RMK CI1 HZ SLP152 DENSITY ALT 4800FT
08:00
V
16 °C 9 mi - 230° 230° 2 kt METAR CYYC 151400Z 23002KT 9SM FEW230 16/12 A2999 RMK CI2 SLP156 DENSITY ALT 4500FT
07:00
V
14 °C 20 mi - 190° 190° 4 kt METAR CYYC 151300Z 19004KT 20SM FEW140 SCT240 14/12 A2999 RMK AC1CI3 AC TR HZ / CONTRAILS SLP158 DENSITY ALT 4300FT
06:00
V
13 °C 20 mi - 180° 180° 6 kt METAR CYYC 151200Z 18006KT 20SM FEW120 SCT240 13/11 A3000 RMK AC1CI2 SLP162 DENSITY ALT 4200FT
05:00
V
13 °C 10 mi - 170° 170° 7 kt METAR CYYC 151100Z 17007KT 10SM FEW110 13/12 A3001 RMK AC2 SLP165 DENSITY ALT 4200FT
04:00
V
14 °C 10 mi - 190° 190° 8 kt METAR CYYC 151000Z 19008KT 10SM FEW110 14/12 A3001 RMK AC2 SLP168 DENSITY ALT 4300FT
03:00
V
14 °C 10 mi - 190° 190° 7 kt METAR CYYC 150900Z 19007KT 10SM FEW110 14/12 A3003 RMK AC2 SLP175 DENSITY ALT 4200FT
02:00
V
15 °C 10 mi - 190° 190° 7 kt METAR CYYC 150800Z 19007KT 10SM FEW110 15/12 A3005 RMK AC2 SLP176 DENSITY ALT 4300FT
01:00
V
16 °C 10 mi - 200° 200° 7 kt METAR CYYC 150700Z 20007KT 10SM FEW110 16/13 A3006 RMK AC2 SLP178 DENSITY ALT 4400FT
00:00
V
16 °C 10 mi - 180° 180° 7 kt METAR CYYC 150600Z 18007KT 10SM FEW048 16/13 A3006 RMK SC2 SLP177 DENSITY ALT 4400FT

14 luglio 2024

Tempo Codice Tempo meteorologico Temp. Vista Base nuvolosa Vento METAR/SPECI
23:00
V
18 °C 10 mi - 170° 170° 10 kt METAR CYYC 150500Z 17010KT 10SM SCT047 18/13 A3007 RMK SC4 SLP177 DENSITY ALT 4600FT
22:00
V
18 °C 10 mi 3.500 ft 170° 170° 8 kt METAR CYYC 150400Z 17008KT 10SM BKN035 18/13 A3007 RMK SC5 SLP178 DENSITY ALT 4600FT
21:00
V
19 °C 10 mi 3.500 ft 100° 100° 7 kt METAR CYYC 150300Z 10007KT 10SM FEW025 BKN035 BKN230 19/12 A3006 RMK CU1SC5CI1 CU TR CI TR HZ SLP174 DENSITY ALT 4800FT
20:00
V
20 °C 10 mi - 110° 110° 5 kt METAR CYYC 150200Z 11005KT 10SM SCT038 SCT260 20/12 A3007 RMK SC3CI1 HZ SLP180 DENSITY ALT 4800FT
19:00
V
20 °C 15 mi - 110° 110° 6 kt METAR CYYC 150100Z 11006KT 060V130 15SM FEW020 FEW300 20/12 A3005 RMK SC1CI1 SLP178 DENSITY ALT 4900FT
18:00
V
20 °C 15 mi - 080° 080° 7 kt METAR CYYC 150000Z 08007KT 030V120 15SM FEW020 SCT300 20/12 A3006 RMK SC2CI1 SLP178 DENSITY ALT 4900FT
17:00
V
20 °C 10 mi 30.000 ft 050° 050° 8 kt METAR CYYC 142300Z 05008KT 10SM SCT022 BKN300 20/13 A3006 RMK SC3CI2 SLP180 DENSITY ALT 4800FT
16:00
M
17 °C 8 mi 1.800 ft 040° 040° 13 kt METAR CYYC 142200Z 04013KT 8SM BKN018 OVC150 17/13 A3008 RMK SC7AC1 HZ SLP188 DENSITY ALT 4600FT
15:00
M
18 °C 8 mi 1.500 ft 040° 040° 11 - 16 kt METAR CYYC 142100Z 04011G16KT 8SM BKN015 OVC200 18/13 A3008 RMK SC6CC2 HZ SLP185 DENSITY ALT 4600FT
14:00
V
20 °C 8 mi 15.000 ft 020° 020° 18 kt METAR CYYC 142000Z 02018KT 8SM BKN150 BKN300 20/14 A3007 RMK AC5CI2 SLP181 DENSITY ALT 4800FT
13:00
V
21 °C 10 mi 14.000 ft 070° 070° 7 kt METAR CYYC 141900Z 07007KT 030V100 10SM SCT050 BKN140 BKN300 21/10 A3007 RMK SC3AC2CI2 SLP178 DENSITY ALT 5000FT
12:00
V
22 °C 15 mi 30.000 ft 060° 060° 8 kt METAR CYYC 141800Z 06008KT 010V090 15SM SCT120 BKN300 22/11 A3006 RMK AC3CI4 SLP175 DENSITY ALT 5100FT
11:00
V
22 °C 10 mi 21.000 ft 160° 160° 7 kt METAR CYYC 141700Z 16007KT 110V180 10SM BKN210 22/10 A3006 RMK CC6 SLP172 DENSITY ALT 5100FT
10:00
V
21 °C 10 mi - 180° 180° 13 - 18 kt METAR CYYC 141600Z 18013G18KT 10SM SCT300 21/10 A3005 RMK CI4 SLP167 DENSITY ALT 5000FT
09:00
V
20 °C 10 mi - 180° 180° 9 kt METAR CYYC 141500Z 18009KT 10SM SCT300 20/11 A3005 RMK CI3 SLP166 DENSITY ALT 4900FT
08:00
V
17 °C 10 mi - 180° 180° 4 kt METAR CYYC 141400Z 18004KT 10SM SCT220 17/12 A3005 RMK CC3 SLP168 DENSITY ALT 4500FT
07:00
V
15 °C 20 mi 25.000 ft 220° 220° 3 kt METAR CYYC 141300Z 22003KT 20SM FEW150 BKN250 15/11 A3005 RMK AC2CI3 HZ SLP168 DENSITY ALT 4300FT
06:00
V
15 °C 20 mi 23.000 ft 360° 360° 0 kt METAR CYYC 141200Z 00000KT 20SM FEW130 BKN230 15/11 A3004 RMK AC2CI3 SLP166 DENSITY ALT 4300FT
05:00
V
16 °C 10 mi - 310° 310° 3 kt METAR CYYC 141100Z 31003KT 300V040 10SM SCT058 16/11 A3004 RMK SC4 SLP163 DENSITY ALT 4400FT
04:00
V
16 °C 10 mi 5.800 ft 020° 020° 3 kt METAR CYYC 141000Z 02003KT 10SM BKN058 16/12 A3005 RMK SC6 SLP167 DENSITY ALT 4400FT
03:00
V
17 °C 10 mi 5.700 ft 020° 020° 2 kt METAR CYYC 140900Z 02002KT 10SM OVC057 17/12 A3006 RMK SC8 SLP167 DENSITY ALT 4600FT
02:00
V
17 °C 10 mi 5.400 ft 320° 320° 3 kt METAR CYYC 140800Z 32003KT 10SM BKN054 17/11 A3006 RMK SC7 SLP169 DENSITY ALT 4600FT
01:00
V
16 °C 10 mi 12.000 ft 340° 340° 5 kt METAR CYYC 140700Z 34005KT 10SM SCT056 BKN120 BKN240 16/11 A3006 RMK SC4AC2CI1 CI TR SLP172 DENSITY ALT 4500FT
00:00
V
17 °C 15 mi - 350° 350° 6 kt METAR CYYC 140600Z 35006KT 15SM FEW061 FEW120 SCT230 17/11 A3006 RMK SC1AC2CI1 SC TR SLP171 DENSITY ALT 4600FT

13 luglio 2024

Tempo Codice Tempo meteorologico Temp. Vista Base nuvolosa Vento METAR/SPECI
23:00
V
18 °C 10 mi 12.000 ft 350° 350° 6 kt METAR CYYC 140500Z 35006KT 10SM SCT060 BKN120 18/11 A3004 RMK SC4AC2 SLP168 DENSITY ALT 4700FT
22:00
V
20 °C 15 mi - 020° 020° 11 kt METAR CYYC 140400Z 02011KT 15SM FEW120 20/11 A3003 RMK AC2 SLP163 DENSITY ALT 4900FT
21:00
V
22 °C 15 mi - 020° 020° 13 - 19 kt METAR CYYC 140300Z 02013G19KT 15SM SCT130 SCT260 22/09 A3000 RMK AC3CI1 HZ / CONTRAILS SLP153 DENSITY ALT 5100FT
20:00
V
24 °C 15 mi - 040° 040° 17 kt METAR CYYC 140200Z 04017KT 15SM FEW140 SCT260 24/09 A2999 RMK AC2CI2 HZ / CONTRAILS SLP147 DENSITY ALT 5400FT
19:00
V
26 °C 15 mi 25.000 ft 070° 070° 10 kt METAR CYYC 140100Z 07010KT 15SM FEW150 BKN250 26/10 A2997 RMK AC2CI5 CONTRAILS SLP142 DENSITY ALT 5600FT
18:00
V
26 °C 20 mi 25.000 ft 060° 060° 11 kt METAR CYYC 140000Z 06011KT 20SM FEW063CB SCT150 BKN250 26/10 A2997 RMK CB1AC2CI2 CB E MOVG E / CONTRAILS SLP142 DENSITY ALT 5600FT
17:00
V
25 °C 20 mi 14.000 ft 080° 080° 15 kt METAR CYYC 132300Z 08015KT 20SM VCSH SCT063CB BKN140 BKN250 25/12 A2997 RMK CB3AC2CI1 CB E MOVG E SLP141 DENSITY ALT 5600FT
16:29
V
26 °C 20 mi 6.500 ft 150° 150° 7 - 16 kt SPECI CYYC 132229Z 15007G16KT 080V170 20SM TS VCSH BKN065CB BKN140 BKN250 26/12 A2996 RMK CB5AC1CI1 CB OHD MOVG SE SLP137 DENSITY ALT 5700FT
16:00
V
26 °C 20 mi 14.000 ft 100° 100° 9 kt METAR CYYC 132200Z 10009KT 060V150 20SM BKN140 BKN250 26/12 A2998 RMK ACC5CI2 VIRGA / CONTRAILS SLP143 DENSITY ALT 5700FT
15:00
V
27 °C 20 mi 25.000 ft 140° 140° 8 - 15 kt METAR CYYC 132100Z 14008G15KT 110V170 20SM SCT068TCU SCT150 BKN250 27/12 A2999 RMK TCU3AC1CI2 VIRGA NW-NE SLP142 DENSITY ALT 5800FT
14:00
V
26 °C 20 mi 25.000 ft 110° 110° 10 kt METAR CYYC 132000Z 11010KT 100V180 20SM FEW057 SCT150 BKN250 26/12 A3000 RMK SC1AC3CI3 TCU ASOCTD NW / SH NW / CONTRAILS SLP148 DENSITY ALT 5700FT
13:00
V
25 °C 20 mi 25.000 ft Var Var 5 kt METAR CYYC 131900Z VRB05KT 20SM FEW058 FEW120 BKN250 25/10 A3002 RMK SC1AC1CI4 AC TR CONTRAILS SLP156 DENSITY ALT 5500FT
12:00
V
24 °C 20 mi 25.000 ft Var Var 4 kt METAR CYYC 131800Z VRB04KT 20SM FEW050 FEW120 BKN250 24/12 A3003 RMK SC1AC1CI7 SC TR AC TR TCU ASOCTD NW / CONTRAILS SLP161 DENSITY ALT 5300FT
11:00
V
21 °C 20 mi 25.000 ft 170° 170° 8 kt METAR CYYC 131700Z 17008KT 20SM FEW120 BKN250 21/11 A3005 RMK AC1CI7 AC TR CONTRAILS SLP168 DENSITY ALT 5100FT
10:00
V
20 °C 20 mi 23.000 ft 180° 180° 8 kt METAR CYYC 131600Z 18008KT 20SM FEW120 BKN230 20/11 A3005 RMK AC1CI7 AC TR CC ASOCTD SLP170 DENSITY ALT 4900FT
09:00
V
17 °C 20 mi 23.000 ft 210° 210° 2 kt METAR CYYC 131500Z 21002KT 20SM BKN230 17/11 A3006 RMK CI7 CC ASOCTD SLP176 DENSITY ALT 4600FT
08:00
V
16 °C 20 mi 25.000 ft 210° 210° 3 kt METAR CYYC 131400Z 21003KT 20SM BKN250 16/11 A3006 RMK CI7 SLP176 DENSITY ALT 4400FT
07:00
V
14 °C 15 mi - 360° 360° 0 kt METAR CYYC 131300Z 00000KT 15SM FEW140 SCT230 14/09 A3007 RMK AC1CI3 AC TR HZ / CB TOP E SLP180 DENSITY ALT 4300FT
06:00
V
13 °C 15 mi 21.000 ft 360° 360° 0 kt METAR CYYC 131200Z 00000KT 15SM SCT120 BKN210 13/09 A3008 RMK AC3CI2 SLP183 DENSITY ALT 4000FT
05:00
V
14 °C 10 mi 21.000 ft 340° 340° 2 kt METAR CYYC 131100Z 34002KT 10SM FEW040TCU BKN210 14/09 A3008 RMK TCU1CC5 TCU TR SLP182 DENSITY ALT 4200FT
04:00
V
14 °C 10 mi 21.000 ft 040° 040° 2 kt METAR CYYC 131000Z 04002KT 10SM FEW040TCU BKN210 14/09 A3007 RMK TCU1CI7 TCU TR TCU NE SLP181 DENSITY ALT 4200FT
03:00
V
16 °C 15 mi - 360° 360° 0 kt METAR CYYC 130900Z 00000KT 15SM FEW110 16/09 A3008 RMK AC1 AC TR SLP182 DENSITY ALT 4500FT
02:00
V
17 °C 15 mi - Var Var 2 kt METAR CYYC 130800Z VRB02KT 15SM FEW110 17/09 A3009 RMK AC1 AC TR SLP186 DENSITY ALT 4500FT
01:00
V
17 °C 15 mi - 120° 120° 9 kt METAR CYYC 130700Z 12009KT 15SM FEW120 17/09 A3010 RMK AC2 SLP189 DENSITY ALT 4500FT
00:00
V
17 °C 15 mi - 100° 100° 6 kt METAR CYYC 130600Z 10006KT 15SM SCT120 17/10 A3010 RMK AC3 SLP189 DENSITY ALT 4500FT
Segnala modifiche